createdAt,value
2022-11-13T00:02:37.431Z,99.90
2022-11-13T00:05:06.448Z,99.90
2022-11-13T00:07:48.453Z,99.90
2022-11-13T00:10:31.628Z,99.90
2022-11-13T00:12:59.925Z,99.90
2022-11-13T00:15:42.207Z,99.90
2022-11-13T00:18:11.975Z,99.90
2022-11-13T00:20:59.166Z,99.90
2022-11-13T00:23:41.257Z,99.90
2022-11-13T00:26:26.979Z,99.90
2022-11-13T00:32:07.203Z,99.90
2022-11-13T00:34:51.355Z,99.90
2022-11-13T00:37:42.339Z,99.90
2022-11-13T00:40:26.403Z,99.90
2022-11-13T00:43:11.784Z,99.90
2022-11-13T00:45:54.331Z,99.90
2022-11-13T00:48:37.435Z,99.90
2022-11-13T00:51:21.329Z,99.90
2022-11-13T00:53:49.569Z,99.90
2022-11-13T00:59:31.743Z,99.90
2022-11-13T01:02:14.343Z,99.90
2022-11-13T01:04:57.329Z,99.90
2022-11-13T01:07:41.378Z,99.90
2022-11-13T01:10:23.829Z,99.90
2022-11-13T01:12:51.926Z,99.90
2022-11-13T01:15:34.346Z,99.90
2022-11-13T01:21:05.705Z,99.90
2022-11-13T01:23:50.354Z,99.90
2022-11-13T01:26:21.462Z,99.90
2022-11-13T01:28:49.993Z,99.90
2022-11-13T01:31:35.245Z,99.90
2022-11-13T01:34:04.762Z,99.90
2022-11-13T01:36:47.890Z,99.90
2022-11-13T01:39:31.393Z,99.90
2022-11-13T01:42:14.365Z,99.90
2022-11-13T01:45:05.372Z,99.90
2022-11-13T01:47:47.381Z,99.90
2022-11-13T01:50:30.392Z,99.90
2022-11-13T01:53:13.468Z,99.90
2022-11-13T01:55:57.376Z,99.90
2022-11-13T02:01:36.395Z,99.90
2022-11-13T02:04:20.093Z,99.90
2022-11-13T02:10:05.750Z,99.90
2022-11-13T02:12:54.390Z,99.90
2022-11-13T02:15:40.423Z,99.90
2022-11-13T02:21:28.442Z,99.90
2022-11-13T02:24:19.435Z,99.90
2022-11-13T02:27:10.874Z,99.90
2022-11-13T02:29:39.215Z,99.90
2022-11-13T02:32:21.589Z,99.90
2022-11-13T02:35:04.404Z,99.90
2022-11-13T02:37:47.401Z,99.90
2022-11-13T02:40:15.969Z,99.90
2022-11-13T02:42:45.502Z,99.90
2022-11-13T02:45:13.687Z,99.90
2022-11-13T02:47:42.326Z,99.90
2022-11-13T02:50:12.287Z,99.90
2022-11-13T02:52:40.422Z,99.90
2022-11-13T02:55:09.457Z,99.90
2022-11-13T02:57:38.014Z,99.90
2022-11-13T03:00:13.738Z,99.90
2022-11-13T03:02:42.831Z,99.90
2022-11-13T03:05:13.362Z,99.90
2022-11-13T03:07:43.161Z,99.90
2022-11-13T03:10:12.453Z,99.90
2022-11-13T03:12:41.746Z,99.90
2022-11-13T03:15:12.215Z,99.90
2022-11-13T03:17:40.859Z,99.90
2022-11-13T03:20:09.625Z,99.90
2022-11-13T03:22:44.064Z,99.90
2022-11-13T03:25:18.622Z,99.90
2022-11-13T03:27:51.014Z,99.90
2022-11-13T03:30:20.717Z,99.90
2022-11-13T03:32:48.787Z,99.90
2022-11-13T03:35:16.957Z,99.90
2022-11-13T03:37:45.079Z,99.90
2022-11-13T03:40:13.781Z,99.90
2022-11-13T03:42:42.588Z,99.90
2022-11-13T03:45:11.190Z,99.90
2022-11-13T03:47:40.968Z,99.90
2022-11-13T03:50:09.956Z,99.90
2022-11-13T03:52:38.042Z,99.90
2022-11-13T03:55:07.077Z,99.90
2022-11-13T03:57:35.186Z,99.90
2022-11-13T04:00:03.834Z,99.90
2022-11-13T04:02:31.938Z,99.90
2022-11-13T04:05:01.782Z,99.90
2022-11-13T04:07:29.927Z,99.90
2022-11-13T04:09:58.105Z,99.90
2022-11-13T04:12:27.805Z,99.90
2022-11-13T04:14:55.954Z,99.90
2022-11-13T04:17:24.117Z,99.90
2022-11-13T04:19:52.635Z,99.90
2022-11-13T04:22:22.235Z,99.90
2022-11-13T04:24:50.728Z,99.90
2022-11-13T04:27:18.964Z,99.90
2022-11-13T04:29:47.376Z,99.90
2022-11-13T04:32:15.553Z,99.90
2022-11-13T04:34:43.807Z,99.90
2022-11-13T04:37:11.992Z,99.90
2022-11-13T04:39:41.881Z,99.90
2022-11-13T04:42:28.244Z,99.90
2022-11-13T04:44:56.381Z,99.90
2022-11-13T04:47:24.972Z,99.90
2022-11-13T04:49:53.126Z,99.90
2022-11-13T04:52:21.295Z,99.90
2022-11-13T04:54:50.847Z,99.90
2022-11-13T04:57:19.343Z,99.90
2022-11-13T04:59:47.518Z,99.90
2022-11-13T05:02:15.725Z,99.90
2022-11-13T05:04:45.056Z,99.90
2022-11-13T05:07:13.475Z,99.90
2022-11-13T05:09:41.715Z,99.90
2022-11-13T05:12:11.488Z,99.90
2022-11-13T05:14:40.686Z,99.90
2022-11-13T05:17:11.569Z,99.90
2022-11-13T05:19:39.947Z,99.90
2022-11-13T05:22:08.863Z,99.90
2022-11-13T05:24:37.017Z,99.90
2022-11-13T05:27:05.539Z,99.90
2022-11-13T05:29:35.025Z,99.90
2022-11-13T05:32:03.259Z,99.90
2022-11-13T05:34:31.416Z,99.90
2022-11-13T05:36:59.586Z,99.90
2022-11-13T05:39:27.762Z,99.90
2022-11-13T05:41:56.286Z,99.90
2022-11-13T05:44:24.447Z,99.90
2022-11-13T05:46:53.985Z,99.90
2022-11-13T05:49:22.173Z,99.90
2022-11-13T05:51:50.379Z,99.90
2022-11-13T05:54:18.494Z,99.90
2022-11-13T05:56:46.928Z,99.90
2022-11-13T05:59:15.257Z,99.90
2022-11-13T06:01:43.736Z,99.90
2022-11-13T06:04:13.307Z,99.90
2022-11-13T06:06:42.430Z,99.90
2022-11-13T06:09:14.558Z,99.90
2022-11-13T06:11:42.927Z,99.90
2022-11-13T06:14:11.231Z,99.90
2022-11-13T06:16:40.355Z,99.90
2022-11-13T06:19:11.070Z,99.90
2022-11-13T06:21:42.054Z,99.90
2022-11-13T06:24:13.195Z,99.90
2022-11-13T06:26:41.862Z,99.90
2022-11-13T06:29:12.559Z,99.90
2022-11-13T06:31:40.894Z,99.90
2022-11-13T06:34:09.530Z,99.90
2022-11-13T06:36:38.629Z,99.90
2022-11-13T06:39:09.349Z,99.90
2022-11-13T06:41:39.444Z,99.90
2022-11-13T06:44:07.585Z,99.90
2022-11-13T06:46:35.723Z,99.90
2022-11-13T06:49:03.887Z,99.90
2022-11-13T06:51:32.614Z,99.90
2022-11-13T06:54:00.839Z,99.90
2022-11-13T06:56:30.651Z,99.90
2022-11-13T06:58:58.758Z,99.90
2022-11-13T07:01:28.156Z,99.90
2022-11-13T07:03:56.513Z,99.90
2022-11-13T07:06:25.619Z,99.90
2022-11-13T07:08:54.269Z,99.90
2022-11-13T07:11:24.200Z,99.90
2022-11-13T07:13:53.711Z,99.90
2022-11-13T07:16:21.868Z,99.90
2022-11-13T07:18:54.673Z,99.90
2022-11-13T07:21:25.695Z,99.90
2022-11-13T07:23:54.070Z,99.90
2022-11-13T07:26:22.363Z,99.90
2022-11-13T07:28:51.266Z,99.90
2022-11-13T07:31:21.930Z,99.90
2022-11-13T07:33:51.492Z,99.90
2022-11-13T07:36:19.972Z,99.90
2022-11-13T07:38:48.164Z,99.90
2022-11-13T07:41:16.306Z,99.90
2022-11-13T07:43:44.733Z,99.90
2022-11-13T07:46:12.901Z,99.90
2022-11-13T07:48:42.398Z,99.90
2022-11-13T07:51:10.524Z,99.90
2022-11-13T07:53:39.126Z,99.90
2022-11-13T07:56:08.241Z,99.90
2022-11-13T07:58:36.449Z,99.90
2022-11-13T08:01:05.459Z,99.90
2022-11-13T08:03:34.427Z,99.90
2022-11-13T08:06:05.704Z,99.90
2022-11-13T08:08:35.011Z,99.90
2022-11-13T08:11:06.617Z,99.90
2022-11-13T08:13:35.868Z,99.90
2022-11-13T08:16:04.968Z,99.90
2022-11-13T08:18:34.211Z,99.90
2022-11-13T08:21:08.011Z,99.90
2022-11-13T08:23:38.771Z,99.90
2022-11-13T08:26:08.699Z,99.90
2022-11-13T08:28:37.584Z,99.90
2022-11-13T08:31:06.518Z,99.90
2022-11-13T08:33:35.632Z,99.90
2022-11-13T08:36:05.903Z,99.90
2022-11-13T08:38:34.202Z,99.90
2022-11-13T08:41:08.673Z,99.90
2022-11-13T08:43:38.144Z,99.90
2022-11-13T08:46:06.616Z,99.90
2022-11-13T08:48:35.161Z,99.90
2022-11-13T08:51:04.938Z,99.90
2022-11-13T08:53:33.096Z,99.90
2022-11-13T08:56:02.750Z,99.90
2022-11-13T08:58:31.752Z,99.90
2022-11-13T09:01:03.571Z,99.90
2022-11-13T09:03:31.831Z,99.90
2022-11-13T09:06:00.232Z,95.00
2022-11-13T09:08:32.004Z,91.20
2022-11-13T09:11:04.890Z,84.90
2022-11-13T09:13:38.568Z,77.70
2022-11-13T09:16:10.160Z,71.60
2022-11-13T09:18:38.497Z,68.10
2022-11-13T09:21:06.940Z,66.20
2022-11-13T09:23:36.690Z,63.70
2022-11-13T09:26:05.585Z,61.40
2022-11-13T09:28:35.538Z,59.40
2022-11-13T09:31:05.885Z,59.30
2022-11-13T09:33:34.339Z,59.80
2022-11-13T09:36:03.025Z,58.00
2022-11-13T09:38:32.352Z,56.70
2022-11-13T09:41:06.333Z,57.60
2022-11-13T09:43:39.794Z,55.70
2022-11-13T09:46:13.275Z,55.30
2022-11-13T09:48:45.238Z,55.30
2022-11-13T09:51:17.672Z,56.40
2022-11-13T09:53:50.488Z,58.30
2022-11-13T09:56:29.208Z,58.40
2022-11-13T09:59:03.915Z,59.60
2022-11-13T10:01:42.945Z,59.60
2022-11-13T10:04:15.524Z,60.20
2022-11-13T10:07:01.727Z,61.70
2022-11-13T10:09:38.394Z,62.00
2022-11-13T10:12:10.212Z,62.80
2022-11-13T10:14:45.640Z,61.80
2022-11-13T10:17:20.323Z,64.10
2022-11-13T10:19:59.562Z,63.60
2022-11-13T10:22:37.147Z,66.70
2022-11-13T10:25:14.030Z,68.00
2022-11-13T10:27:45.050Z,66.20
2022-11-13T10:30:17.817Z,68.90
2022-11-13T10:32:47.528Z,68.20
2022-11-13T10:35:37.282Z,68.90
2022-11-13T10:38:09.036Z,71.30
2022-11-13T10:40:39.811Z,70.00
2022-11-13T10:43:16.568Z,70.10
2022-11-13T10:45:55.808Z,74.00
2022-11-13T10:48:25.440Z,75.60
2022-11-13T10:51:06.049Z,78.80
2022-11-13T10:53:40.252Z,78.90
2022-11-13T10:56:23.059Z,81.80
2022-11-13T10:59:12.353Z,87.00
2022-11-13T11:01:42.047Z,89.30
2022-11-13T11:04:15.001Z,90.00
2022-11-13T11:09:33.529Z,91.40
2022-11-13T11:12:30.379Z,92.80
2022-11-13T11:15:07.594Z,93.50
2022-11-13T11:17:43.985Z,92.60
2022-11-13T11:20:22.449Z,93.70
2022-11-13T11:22:54.359Z,94.60
2022-11-13T11:25:33.526Z,96.10
2022-11-13T11:28:07.155Z,95.60
2022-11-13T11:30:44.620Z,95.70
2022-11-13T11:33:18.174Z,97.80
2022-11-13T11:35:50.797Z,96.60
2022-11-13T11:38:26.677Z,97.00
2022-11-13T11:40:58.258Z,96.90
2022-11-13T11:43:35.985Z,99.40
2022-11-13T11:46:05.682Z,99.40
2022-11-13T11:48:35.391Z,99.10
2022-11-13T11:51:09.950Z,99.60
2022-11-13T11:53:46.973Z,98.60
2022-11-13T11:56:24.844Z,99.00
2022-11-13T11:59:14.196Z,99.40
2022-11-13T12:01:59.536Z,99.30
2022-11-13T12:04:46.327Z,99.60
2022-11-13T12:07:28.628Z,99.90
2022-11-13T12:10:04.593Z,99.90
2022-11-13T12:12:48.014Z,99.90
2022-11-13T12:15:21.823Z,99.90
2022-11-13T12:18:03.111Z,99.90
2022-11-13T12:20:39.892Z,99.90
2022-11-13T12:23:31.212Z,99.90
2022-11-13T12:26:07.340Z,99.90
2022-11-13T12:28:45.247Z,99.90
2022-11-13T12:31:25.705Z,99.90
2022-11-13T12:34:04.634Z,99.90
2022-11-13T12:36:33.500Z,99.90
2022-11-13T12:39:08.687Z,99.90
2022-11-13T12:41:46.604Z,99.90
2022-11-13T12:44:25.609Z,99.90
2022-11-13T12:46:55.607Z,99.90
2022-11-13T12:49:32.191Z,99.90
2022-11-13T12:52:03.072Z,99.90
2022-11-13T12:54:32.773Z,99.90
2022-11-13T12:57:09.330Z,99.90
2022-11-13T12:59:41.507Z,99.90
2022-11-13T13:02:40.054Z,99.90
2022-11-13T13:05:24.874Z,99.90
2022-11-13T13:08:34.953Z,99.90
2022-11-13T13:11:15.784Z,99.90
2022-11-13T13:13:53.257Z,99.90
2022-11-13T13:16:25.748Z,99.90
2022-11-13T13:19:06.817Z,99.90
2022-11-13T13:21:44.428Z,99.90
2022-11-13T13:24:30.700Z,99.30
2022-11-13T13:26:59.066Z,97.30
2022-11-13T13:29:29.593Z,95.70
2022-11-13T13:32:12.219Z,93.80
2022-11-13T13:34:56.650Z,91.30
2022-11-13T13:37:36.828Z,90.70
2022-11-13T13:40:20.902Z,89.20
2022-11-13T13:43:05.737Z,84.30
2022-11-13T13:45:44.737Z,81.30
2022-11-13T13:48:15.362Z,79.60
2022-11-13T13:50:47.434Z,75.90
2022-11-13T13:53:23.191Z,73.20
2022-11-13T13:55:53.841Z,72.80
2022-11-13T13:58:27.669Z,68.10
2022-11-13T14:01:17.225Z,68.30
2022-11-13T14:03:46.499Z,66.80
2022-11-13T14:06:23.058Z,64.00
2022-11-13T14:08:52.563Z,63.10
2022-11-13T14:11:22.827Z,62.60
2022-11-13T14:13:50.908Z,62.50
2022-11-13T14:16:19.285Z,61.50
2022-11-13T14:18:47.465Z,61.00
2022-11-13T14:21:20.745Z,59.80
2022-11-13T14:23:51.146Z,60.60
2022-11-13T14:26:21.810Z,60.80
2022-11-13T14:28:56.480Z,63.40
2022-11-13T14:31:30.028Z,65.80
2022-11-13T14:34:01.833Z,70.30
2022-11-13T14:36:33.348Z,72.70
2022-11-13T14:39:02.037Z,75.60
2022-11-13T14:41:37.076Z,77.80
2022-11-13T14:44:05.728Z,82.60
2022-11-13T14:46:37.980Z,85.30
2022-11-13T14:49:13.163Z,85.20
2022-11-13T14:51:41.698Z,88.20
2022-11-13T14:54:53.225Z,90.00
2022-11-13T14:57:21.655Z,91.60
2022-11-13T14:59:50.293Z,93.50
2022-11-13T15:02:20.278Z,94.00
2022-11-13T15:04:48.625Z,96.10
2022-11-13T15:07:29.701Z,96.70
2022-11-13T15:09:58.678Z,96.90
2022-11-13T15:12:28.383Z,98.10
2022-11-13T15:14:56.887Z,99.70
2022-11-13T15:17:25.175Z,99.90
2022-11-13T15:19:55.002Z,99.90
2022-11-13T15:22:28.447Z,99.90
2022-11-13T15:24:57.313Z,99.90
2022-11-13T15:27:25.508Z,99.90
2022-11-13T15:29:55.146Z,99.90
2022-11-13T15:32:24.210Z,99.90
2022-11-13T15:34:52.515Z,99.90
2022-11-13T15:37:20.593Z,99.90
2022-11-13T15:39:48.803Z,99.90
2022-11-13T15:42:19.396Z,99.90
2022-11-13T15:44:48.441Z,99.90
2022-11-13T15:47:27.904Z,99.90
2022-11-13T15:50:12.750Z,99.90
2022-11-13T15:52:45.820Z,99.90
2022-11-13T15:55:28.636Z,99.90
2022-11-13T15:57:57.575Z,99.90
2022-11-13T16:00:27.543Z,99.90
2022-11-13T16:02:58.820Z,99.90
2022-11-13T16:05:29.549Z,99.90
2022-11-13T16:07:58.218Z,99.90
2022-11-13T16:10:26.644Z,99.90
2022-11-13T16:12:55.516Z,99.90
2022-11-13T16:15:24.416Z,99.90
2022-11-13T16:17:58.226Z,99.90
2022-11-13T16:20:26.964Z,99.90
2022-11-13T16:22:55.576Z,99.90
2022-11-13T16:25:32.111Z,99.90
2022-11-13T16:28:05.671Z,99.90
2022-11-13T16:30:34.028Z,99.90
2022-11-13T16:33:05.894Z,99.90
2022-11-13T16:35:34.062Z,99.90
2022-11-13T16:38:02.632Z,99.90
2022-11-13T16:40:32.595Z,99.90
2022-11-13T16:43:00.776Z,99.90
2022-11-13T16:45:29.712Z,99.90
2022-11-13T16:47:58.460Z,99.90
2022-11-13T16:50:31.980Z,99.90
2022-11-13T16:53:01.215Z,99.90
2022-11-13T16:55:30.122Z,99.90
2022-11-13T16:57:58.413Z,99.90
2022-11-13T17:00:27.115Z,99.90
2022-11-13T17:02:55.316Z,99.90
2022-11-13T17:05:24.867Z,99.90
2022-11-13T17:07:59.432Z,99.90
2022-11-13T17:10:32.568Z,99.90
2022-11-13T17:13:01.973Z,99.90
2022-11-13T17:15:30.538Z,99.90
2022-11-13T17:17:59.685Z,99.90
2022-11-13T17:20:28.445Z,99.90
2022-11-13T17:22:58.204Z,99.90
2022-11-13T17:25:28.252Z,99.90
2022-11-13T17:27:57.001Z,99.90
2022-11-13T17:30:25.426Z,99.90
2022-11-13T17:32:53.655Z,99.90
2022-11-13T17:35:22.089Z,99.90
2022-11-13T17:37:50.349Z,99.90
2022-11-13T17:40:20.058Z,99.90
2022-11-13T17:42:49.501Z,99.90
2022-11-13T17:45:18.284Z,99.90
2022-11-13T17:47:46.478Z,99.90
2022-11-13T17:50:15.203Z,99.90
2022-11-13T17:52:43.618Z,99.90
2022-11-13T17:55:14.124Z,99.90
2022-11-13T17:57:44.516Z,99.90
2022-11-13T18:00:14.006Z,99.90
2022-11-13T18:02:42.705Z,99.90
2022-11-13T18:05:11.205Z,99.90
2022-11-13T18:07:40.307Z,99.90
2022-11-13T18:10:11.030Z,99.90
2022-11-13T18:12:40.844Z,99.90
2022-11-13T18:15:10.912Z,99.90
2022-11-13T18:17:39.721Z,99.90
2022-11-13T18:20:08.638Z,99.90
2022-11-13T18:22:37.109Z,99.90
2022-11-13T18:25:05.742Z,99.90
2022-11-13T18:27:34.383Z,99.90
2022-11-13T18:30:02.737Z,99.90
2022-11-13T18:32:33.139Z,99.90
2022-11-13T18:35:03.896Z,99.90
2022-11-13T18:37:33.214Z,99.90
2022-11-13T18:40:01.880Z,99.90
2022-11-13T18:42:30.252Z,99.90
2022-11-13T18:45:01.738Z,99.90
2022-11-13T18:47:35.407Z,99.90
2022-11-13T18:50:03.787Z,99.90
2022-11-13T18:52:32.844Z,99.90
2022-11-13T18:55:01.489Z,99.90
2022-11-13T18:57:29.955Z,99.90
2022-11-13T18:59:58.140Z,99.90
2022-11-13T19:02:26.332Z,99.90
2022-11-13T19:04:56.258Z,99.90
2022-11-13T19:07:24.491Z,99.90
2022-11-13T19:09:52.753Z,99.90
2022-11-13T19:12:20.951Z,99.90
2022-11-13T19:14:49.099Z,99.90
2022-11-13T19:17:17.409Z,99.90
2022-11-13T19:19:45.622Z,99.90
2022-11-13T19:22:15.533Z,99.90
2022-11-13T19:24:43.835Z,99.90
2022-11-13T19:27:12.279Z,99.90
2022-11-13T19:29:40.984Z,99.90
2022-11-13T19:32:09.286Z,99.90
2022-11-13T19:34:41.235Z,99.90
2022-11-13T19:37:16.301Z,99.90
2022-11-13T19:39:49.451Z,99.90
2022-11-13T19:42:18.093Z,99.90
2022-11-13T19:44:46.728Z,99.90
2022-11-13T19:47:14.878Z,99.90
2022-11-13T19:49:43.050Z,99.90
2022-11-13T19:52:11.189Z,99.90
2022-11-13T19:54:39.611Z,99.90
2022-11-13T19:57:10.447Z,99.90
2022-11-13T19:59:39.542Z,99.90
2022-11-13T20:02:08.041Z,99.90
2022-11-13T20:04:36.332Z,99.90
2022-11-13T20:07:04.806Z,99.90
2022-11-13T20:09:32.984Z,99.90
2022-11-13T20:12:01.504Z,99.90
2022-11-13T20:14:35.614Z,99.90
2022-11-13T20:17:06.154Z,99.90
2022-11-13T20:19:34.278Z,99.90
2022-11-13T20:22:02.609Z,99.90
2022-11-13T20:24:31.361Z,99.90
2022-11-13T20:27:01.026Z,99.90
2022-11-13T20:29:32.354Z,99.90
2022-11-13T20:32:00.790Z,99.90
2022-11-13T20:34:29.008Z,99.90
2022-11-13T20:36:57.288Z,99.90
2022-11-13T20:39:25.569Z,99.90
2022-11-13T20:41:54.023Z,99.90
2022-11-13T20:44:22.206Z,99.90
2022-11-13T20:46:51.733Z,99.90
2022-11-13T20:49:22.182Z,99.90
2022-11-13T20:51:54.626Z,99.90
2022-11-13T20:54:25.095Z,99.90
2022-11-13T20:56:53.272Z,99.90
2022-11-13T20:59:21.401Z,99.90
2022-11-13T21:01:51.206Z,99.90
2022-11-13T21:04:19.531Z,99.90
2022-11-13T21:06:48.224Z,99.90
2022-11-13T21:09:16.543Z,99.90
2022-11-13T21:11:45.120Z,99.90
2022-11-13T21:14:13.555Z,99.90
2022-11-13T21:16:41.728Z,99.90
2022-11-13T21:19:11.931Z,99.90
2022-11-13T21:21:41.560Z,99.90
2022-11-13T21:24:10.114Z,99.90
2022-11-13T21:26:38.572Z,99.90
2022-11-13T21:29:06.890Z,99.90
2022-11-13T21:31:35.065Z,99.90
2022-11-13T21:34:04.081Z,99.90
2022-11-13T21:36:33.844Z,99.90
2022-11-13T21:39:02.403Z,99.90
2022-11-13T21:41:30.633Z,99.90
2022-11-13T21:44:00.498Z,99.90
2022-11-13T21:46:33.038Z,99.90
2022-11-13T21:49:02.693Z,99.90
2022-11-13T21:51:31.744Z,99.90
2022-11-13T21:54:01.990Z,99.90
2022-11-13T21:56:31.873Z,99.90
2022-11-13T21:59:00.288Z,99.90
2022-11-13T22:01:32.378Z,99.90
2022-11-13T22:04:04.914Z,99.90
2022-11-13T22:06:36.339Z,99.90
2022-11-13T22:09:08.620Z,99.90
2022-11-13T22:11:38.274Z,99.90
2022-11-13T22:14:06.525Z,99.90
2022-11-13T22:16:36.310Z,99.90
2022-11-13T22:19:07.396Z,99.90
2022-11-13T22:21:37.004Z,99.90
2022-11-13T22:24:07.653Z,99.90
2022-11-13T22:26:43.436Z,99.90
2022-11-13T22:29:11.840Z,99.90
2022-11-13T22:31:40.389Z,99.90
2022-11-13T22:34:13.653Z,99.90
2022-11-13T22:36:43.714Z,99.90
2022-11-13T22:39:14.575Z,99.90
2022-11-13T22:41:42.855Z,99.90
2022-11-13T22:44:14.372Z,99.90
2022-11-13T22:46:43.727Z,99.90
2022-11-13T22:49:13.619Z,99.90
2022-11-13T22:51:42.798Z,99.90
2022-11-13T22:54:13.779Z,99.90
2022-11-13T22:56:42.786Z,99.90
2022-11-13T22:59:12.664Z,99.90
2022-11-13T23:01:42.995Z,99.90
2022-11-13T23:04:14.724Z,99.90
2022-11-13T23:06:43.324Z,99.90
2022-11-13T23:09:13.089Z,99.90
2022-11-13T23:11:44.059Z,99.90
2022-11-13T23:14:15.786Z,99.90
2022-11-13T23:16:44.140Z,99.90
2022-11-13T23:19:12.464Z,99.90
2022-11-13T23:21:40.778Z,99.90
2022-11-13T23:24:12.647Z,99.90
2022-11-13T23:26:41.380Z,99.90
2022-11-13T23:29:09.499Z,99.90
2022-11-13T23:31:37.711Z,99.90
2022-11-13T23:34:06.613Z,99.90
2022-11-13T23:36:34.801Z,99.90
2022-11-13T23:39:03.107Z,99.90
2022-11-13T23:41:32.734Z,99.90
2022-11-13T23:44:08.767Z,99.90
2022-11-13T23:46:37.869Z,99.90
2022-11-13T23:49:06.064Z,99.90
2022-11-13T23:51:34.715Z,99.90
2022-11-13T23:54:03.509Z,99.90
2022-11-13T23:56:33.158Z,99.90
2022-11-13T23:59:01.349Z,99.90
